sensor_id;sensor_type;location;lat;lon;timestamp;P1;durP1;ratioP1;P2;durP2;ratioP2
39994;SDS011;25686;51.908;10.418;2024-03-23T00:54:04;15.57;;;6.00;;
39994;SDS011;25686;51.908;10.418;2024-03-23T00:56:05;16.73;;;5.13;;
39994;SDS011;25686;51.908;10.418;2024-03-23T00:58:06;22.30;;;5.38;;
39994;SDS011;25686;51.908;10.418;2024-03-23T01:00:07;13.40;;;4.35;;
39994;SDS011;25686;51.908;10.418;2024-03-23T01:02:10;15.70;;;4.18;;
39994;SDS011;25686;51.908;10.418;2024-03-23T01:04:11;13.73;;;4.53;;
39994;SDS011;25686;51.908;10.418;2024-03-23T01:06:12;14.27;;;4.07;;
39994;SDS011;25686;51.908;10.418;2024-03-23T01:08:13;15.93;;;3.78;;
39994;SDS011;25686;51.908;10.418;2024-03-23T01:10:14;21.15;;;4.85;;
39994;SDS011;25686;51.908;10.418;2024-03-23T01:12:15;18.92;;;4.13;;
39994;SDS011;25686;51.908;10.418;2024-03-23T01:14:16;16.52;;;4.00;;
39994;SDS011;25686;51.908;10.418;2024-03-23T01:16:17;23.77;;;4.85;;
39994;SDS011;25686;51.908;10.418;2024-03-23T01:18:18;16.70;;;4.60;;
39994;SDS011;25686;51.908;10.418;2024-03-23T01:20:19;16.83;;;4.30;;
39994;SDS011;25686;51.908;10.418;2024-03-23T01:22:20;21.30;;;4.20;;
39994;SDS011;25686;51.908;10.418;2024-03-23T01:24:21;15.95;;;4.38;;
39994;SDS011;25686;51.908;10.418;2024-03-23T01:26:22;19.98;;;4.55;;
39994;SDS011;25686;51.908;10.418;2024-03-23T01:28:23;18.70;;;4.50;;
39994;SDS011;25686;51.908;10.418;2024-03-23T01:30:24;22.90;;;4.78;;
39994;SDS011;25686;51.908;10.418;2024-03-23T01:32:25;20.02;;;5.43;;
39994;SDS011;25686;51.908;10.418;2024-03-23T01:34:26;16.02;;;4.75;;
39994;SDS011;25686;51.908;10.418;2024-03-23T01:36:28;25.60;;;5.10;;
39994;SDS011;25686;51.908;10.418;2024-03-23T01:38:29;19.67;;;5.05;;
39994;SDS011;25686;51.908;10.418;2024-03-23T01:40:30;17.35;;;5.28;;
39994;SDS011;25686;51.908;10.418;2024-03-23T01:42:34;25.35;;;5.53;;
39994;SDS011;25686;51.908;10.418;2024-03-23T01:44:35;28.23;;;5.20;;
39994;SDS011;25686;51.908;10.418;2024-03-23T01:46:38;23.40;;;5.72;;
39994;SDS011;25686;51.908;10.418;2024-03-23T01:48:41;22.77;;;6.53;;
39994;SDS011;25686;51.908;10.418;2024-03-23T01:50:42;20.25;;;5.63;;
39994;SDS011;25686;51.908;10.418;2024-03-23T01:52:43;21.13;;;6.03;;
39994;SDS011;25686;51.908;10.418;2024-03-23T01:54:44;22.92;;;6.57;;
39994;SDS011;25686;51.908;10.418;2024-03-23T01:56:45;20.63;;;6.20;;
39994;SDS011;25686;51.908;10.418;2024-03-23T01:58:46;20.40;;;5.90;;
39994;SDS011;25686;51.908;10.418;2024-03-23T02:00:47;22.83;;;6.65;;
39994;SDS011;25686;51.908;10.418;2024-03-23T02:02:48;18.50;;;6.15;;
39994;SDS011;25686;51.908;10.418;2024-03-23T02:04:49;19.13;;;6.30;;
39994;SDS011;25686;51.908;10.418;2024-03-23T02:06:50;24.17;;;6.45;;
39994;SDS011;25686;51.908;10.418;2024-03-23T02:08:52;21.38;;;6.47;;
39994;SDS011;25686;51.908;10.418;2024-03-23T02:10:53;21.17;;;6.28;;
39994;SDS011;25686;51.908;10.418;2024-03-23T02:12:54;18.92;;;6.55;;
39994;SDS011;25686;51.908;10.418;2024-03-23T02:14:55;19.63;;;7.00;;
39994;SDS011;25686;51.908;10.418;2024-03-23T02:16:56;17.60;;;6.85;;
39994;SDS011;25686;51.908;10.418;2024-03-23T02:18:57;21.90;;;7.00;;
39994;SDS011;25686;51.908;10.418;2024-03-23T02:20:58;20.25;;;6.25;;
39994;SDS011;25686;51.908;10.418;2024-03-23T02:22:59;16.75;;;5.47;;
39994;SDS011;25686;51.908;10.418;2024-03-23T02:25:00;18.98;;;5.65;;
39994;SDS011;25686;51.908;10.418;2024-03-23T02:27:01;15.90;;;4.80;;
39994;SDS011;25686;51.908;10.418;2024-03-23T02:29:03;14.32;;;5.38;;
39994;SDS011;25686;51.908;10.418;2024-03-23T02:31:04;15.00;;;5.05;;
39994;SDS011;25686;51.908;10.418;2024-03-23T02:33:05;16.60;;;5.28;;
39994;SDS011;25686;51.908;10.418;2024-03-23T02:35:06;13.40;;;4.85;;
39994;SDS011;25686;51.908;10.418;2024-03-23T02:37:10;13.48;;;4.68;;
39994;SDS011;25686;51.908;10.418;2024-03-23T02:39:11;16.25;;;4.38;;
39994;SDS011;25686;51.908;10.418;2024-03-23T02:41:12;14.55;;;4.80;;
39994;SDS011;25686;51.908;10.418;2024-03-23T02:43:13;13.90;;;4.70;;
39994;SDS011;25686;51.908;10.418;2024-03-23T02:45:14;13.02;;;5.25;;
39994;SDS011;25686;51.908;10.418;2024-03-23T02:47:15;15.25;;;5.25;;
39994;SDS011;25686;51.908;10.418;2024-03-23T02:49:16;18.35;;;5.20;;
39994;SDS011;25686;51.908;10.418;2024-03-23T02:51:17;20.13;;;5.20;;
39994;SDS011;25686;51.908;10.418;2024-03-23T02:53:18;14.15;;;4.72;;
39994;SDS011;25686;51.908;10.418;2024-03-23T02:55:19;14.68;;;4.72;;
39994;SDS011;25686;51.908;10.418;2024-03-23T02:57:20;13.65;;;4.63;;
39994;SDS011;25686;51.908;10.418;2024-03-23T02:59:21;14.15;;;4.40;;
39994;SDS011;25686;51.908;10.418;2024-03-23T03:01:22;16.38;;;4.45;;
39994;SDS011;25686;51.908;10.418;2024-03-23T03:03:24;16.23;;;5.13;;
39994;SDS011;25686;51.908;10.418;2024-03-23T03:05:25;19.70;;;4.97;;
39994;SDS011;25686;51.908;10.418;2024-03-23T03:07:26;14.15;;;5.13;;
39994;SDS011;25686;51.908;10.418;2024-03-23T03:09:27;17.70;;;4.45;;
39994;SDS011;25686;51.908;10.418;2024-03-23T03:11:28;16.85;;;4.18;;
39994;SDS011;25686;51.908;10.418;2024-03-23T03:13:29;15.95;;;4.45;;
39994;SDS011;25686;51.908;10.418;2024-03-23T03:15:30;15.60;;;4.28;;
39994;SDS011;25686;51.908;10.418;2024-03-23T03:17:31;12.75;;;4.43;;
39994;SDS011;25686;51.908;10.418;2024-03-23T03:19:32;11.70;;;4.13;;
39994;SDS011;25686;51.908;10.418;2024-03-23T03:21:33;16.45;;;4.13;;
39994;SDS011;25686;51.908;10.418;2024-03-23T03:23:34;13.65;;;4.00;;
39994;SDS011;25686;51.908;10.418;2024-03-23T03:25:35;14.80;;;3.92;;
39994;SDS011;25686;51.908;10.418;2024-03-23T03:27:36;10.40;;;3.40;;
39994;SDS011;25686;51.908;10.418;2024-03-23T03:29:37;13.77;;;3.65;;
39994;SDS011;25686;51.908;10.418;2024-03-23T03:31:38;11.45;;;3.28;;
39994;SDS011;25686;51.908;10.418;2024-03-23T03:33:39;10.25;;;3.40;;
39994;SDS011;25686;51.908;10.418;2024-03-23T03:35:40;14.75;;;3.78;;
39994;SDS011;25686;51.908;10.418;2024-03-23T03:37:41;11.10;;;3.40;;
39994;SDS011;25686;51.908;10.418;2024-03-23T03:39:42;9.32;;;3.00;;
39994;SDS011;25686;51.908;10.418;2024-03-23T03:41:43;8.43;;;2.70;;
39994;SDS011;25686;51.908;10.418;2024-03-23T03:43:44;13.20;;;2.95;;
39994;SDS011;25686;51.908;10.418;2024-03-23T03:45:55;11.57;;;2.97;;
39994;SDS011;25686;51.908;10.418;2024-03-23T03:47:56;11.30;;;2.75;;
39994;SDS011;25686;51.908;10.418;2024-03-23T03:49:57;10.45;;;3.30;;
39994;SDS011;25686;51.908;10.418;2024-03-23T03:51:58;13.50;;;3.13;;
39994;SDS011;25686;51.908;10.418;2024-03-23T03:54:01;11.57;;;3.10;;
39994;SDS011;25686;51.908;10.418;2024-03-23T03:56:02;7.25;;;2.45;;
39994;SDS011;25686;51.908;10.418;2024-03-23T03:58:03;11.10;;;2.63;;
39994;SDS011;25686;51.908;10.418;2024-03-23T04:00:04;10.13;;;2.40;;
39994;SDS011;25686;51.908;10.418;2024-03-23T04:02:06;8.27;;;2.42;;
39994;SDS011;25686;51.908;10.418;2024-03-23T04:04:06;8.80;;;2.67;;
39994;SDS011;25686;51.908;10.418;2024-03-23T04:06:07;7.13;;;1.88;;
39994;SDS011;25686;51.908;10.418;2024-03-23T04:08:08;8.98;;;2.33;;
39994;SDS011;25686;51.908;10.418;2024-03-23T04:10:09;8.05;;;2.10;;
39994;SDS011;25686;51.908;10.418;2024-03-23T04:12:11;8.83;;;2.00;;
39994;SDS011;25686;51.908;10.418;2024-03-23T04:14:12;4.63;;;2.10;;
39994;SDS011;25686;51.908;10.418;2024-03-23T04:16:13;8.00;;;2.20;;
39994;SDS011;25686;51.908;10.418;2024-03-23T04:18:14;7.28;;;2.35;;
39994;SDS011;25686;51.908;10.418;2024-03-23T04:20:15;9.68;;;2.28;;
39994;SDS011;25686;51.908;10.418;2024-03-23T04:22:16;8.68;;;2.13;;
39994;SDS011;25686;51.908;10.418;2024-03-23T04:24:17;17.45;;;2.35;;
39994;SDS011;25686;51.908;10.418;2024-03-23T04:26:20;11.43;;;2.42;;
39994;SDS011;25686;51.908;10.418;2024-03-23T04:28:21;7.65;;;2.10;;
39994;SDS011;25686;51.908;10.418;2024-03-23T04:30:22;4.75;;;1.52;;
39994;SDS011;25686;51.908;10.418;2024-03-23T04:32:25;6.28;;;1.70;;
39994;SDS011;25686;51.908;10.418;2024-03-23T04:34:26;7.97;;;1.57;;
39994;SDS011;25686;51.908;10.418;2024-03-23T04:36:27;7.03;;;1.58;;
39994;SDS011;25686;51.908;10.418;2024-03-23T04:38:28;5.67;;;1.83;;
39994;SDS011;25686;51.908;10.418;2024-03-23T04:40:29;5.60;;;1.63;;
39994;SDS011;25686;51.908;10.418;2024-03-23T04:42:30;7.05;;;1.92;;
39994;SDS011;25686;51.908;10.418;2024-03-23T04:44:32;6.07;;;1.70;;
39994;SDS011;25686;51.908;10.418;2024-03-23T04:46:33;3.08;;;1.20;;
39994;SDS011;25686;51.908;10.418;2024-03-23T04:48:34;3.78;;;1.33;;
39994;SDS011;25686;51.908;10.418;2024-03-23T04:50:35;2.93;;;1.10;;
39994;SDS011;25686;51.908;10.418;2024-03-23T04:52:36;2.83;;;1.10;;
39994;SDS011;25686;51.908;10.418;2024-03-23T04:54:36;3.87;;;1.23;;
39994;SDS011;25686;51.908;10.418;2024-03-23T04:56:37;2.93;;;1.10;;
39994;SDS011;25686;51.908;10.418;2024-03-23T04:58:38;4.03;;;1.13;;
39994;SDS011;25686;51.908;10.418;2024-03-23T05:00:40;2.60;;;1.33;;
39994;SDS011;25686;51.908;10.418;2024-03-23T05:02:41;4.15;;;1.13;;
39994;SDS011;25686;51.908;10.418;2024-03-23T05:04:42;2.37;;;1.13;;
39994;SDS011;25686;51.908;10.418;2024-03-23T05:06:43;4.40;;;1.20;;
39994;SDS011;25686;51.908;10.418;2024-03-23T05:08:44;1.87;;;1.30;;
39994;SDS011;25686;51.908;10.418;2024-03-23T05:10:46;1.80;;;1.07;;
39994;SDS011;25686;51.908;10.418;2024-03-23T05:12:47;2.20;;;1.00;;
39994;SDS011;25686;51.908;10.418;2024-03-23T05:14:48;3.53;;;1.27;;
39994;SDS011;25686;51.908;10.418;2024-03-23T05:16:50;3.23;;;1.03;;
39994;SDS011;25686;51.908;10.418;2024-03-23T05:18:51;3.10;;;1.10;;
39994;SDS011;25686;51.908;10.418;2024-03-23T05:20:55;3.57;;;1.03;;
39994;SDS011;25686;51.908;10.418;2024-03-23T05:22:57;3.60;;;0.90;;
39994;SDS011;25686;51.908;10.418;2024-03-23T05:24:58;3.27;;;1.20;;
39994;SDS011;25686;51.908;10.418;2024-03-23T05:26:59;1.63;;;1.10;;
39994;SDS011;25686;51.908;10.418;2024-03-23T05:29:00;3.77;;;1.33;;
39994;SDS011;25686;51.908;10.418;2024-03-23T05:31:01;2.97;;;1.20;;
39994;SDS011;25686;51.908;10.418;2024-03-23T05:33:02;2.23;;;1.07;;
39994;SDS011;25686;51.908;10.418;2024-03-23T05:35:03;2.27;;;1.20;;
39994;SDS011;25686;51.908;10.418;2024-03-23T05:37:04;3.27;;;1.20;;
39994;SDS011;25686;51.908;10.418;2024-03-23T05:39:05;1.93;;;1.10;;
39994;SDS011;25686;51.908;10.418;2024-03-23T05:41:06;5.23;;;0.93;;
39994;SDS011;25686;51.908;10.418;2024-03-23T05:43:07;1.67;;;1.13;;
39994;SDS011;25686;51.908;10.418;2024-03-23T05:45:09;2.73;;;1.20;;
39994;SDS011;25686;51.908;10.418;2024-03-23T05:47:11;2.87;;;1.10;;
39994;SDS011;25686;51.908;10.418;2024-03-23T05:49:16;5.00;;;1.10;;
39994;SDS011;25686;51.908;10.418;2024-03-23T05:51:18;2.60;;;1.07;;
39994;SDS011;25686;51.908;10.418;2024-03-23T05:53:19;5.73;;;1.60;;
39994;SDS011;25686;51.908;10.418;2024-03-23T05:55:23;3.93;;;1.40;;
39994;SDS011;25686;51.908;10.418;2024-03-23T05:57:24;2.53;;;1.40;;
39994;SDS011;25686;51.908;10.418;2024-03-23T05:59:25;4.43;;;1.60;;
39994;SDS011;25686;51.908;10.418;2024-03-23T06:01:27;3.03;;;1.40;;
39994;SDS011;25686;51.908;10.418;2024-03-23T06:03:29;4.93;;;1.80;;
39994;SDS011;25686;51.908;10.418;2024-03-23T06:05:30;3.97;;;1.90;;
39994;SDS011;25686;51.908;10.418;2024-03-23T06:07:31;4.70;;;1.73;;
39994;SDS011;25686;51.908;10.418;2024-03-23T06:09:32;3.10;;;1.70;;
39994;SDS011;25686;51.908;10.418;2024-03-23T06:11:33;3.13;;;1.73;;
39994;SDS011;25686;51.908;10.418;2024-03-23T06:13:34;3.37;;;1.60;;
39994;SDS011;25686;51.908;10.418;2024-03-23T06:15:35;3.17;;;1.47;;
39994;SDS011;25686;51.908;10.418;2024-03-23T06:17:37;4.07;;;1.77;;
39994;SDS011;25686;51.908;10.418;2024-03-23T06:19:38;8.67;;;1.70;;
39994;SDS011;25686;51.908;10.418;2024-03-23T06:21:42;7.70;;;1.70;;
39994;SDS011;25686;51.908;10.418;2024-03-23T06:23:44;3.90;;;1.50;;
39994;SDS011;25686;51.908;10.418;2024-03-23T06:25:51;5.40;;;1.50;;
39994;SDS011;25686;51.908;10.418;2024-03-23T06:27:52;9.37;;;2.20;;
39994;SDS011;25686;51.908;10.418;2024-03-23T06:29:53;4.50;;;1.40;;
39994;SDS011;25686;51.908;10.418;2024-03-23T06:31:54;5.63;;;1.30;;
39994;SDS011;25686;51.908;10.418;2024-03-23T06:33:55;5.50;;;1.33;;
39994;SDS011;25686;51.908;10.418;2024-03-23T06:35:56;6.53;;;1.47;;
39994;SDS011;25686;51.908;10.418;2024-03-23T06:37:57;6.13;;;1.50;;
39994;SDS011;25686;51.908;10.418;2024-03-23T06:39:58;6.23;;;1.47;;
39994;SDS011;25686;51.908;10.418;2024-03-23T06:41:59;8.13;;;1.67;;
39994;SDS011;25686;51.908;10.418;2024-03-23T06:44:00;7.90;;;2.00;;
39994;SDS011;25686;51.908;10.418;2024-03-23T06:46:01;4.73;;;1.47;;
39994;SDS011;25686;51.908;10.418;2024-03-23T06:48:03;8.43;;;1.93;;
39994;SDS011;25686;51.908;10.418;2024-03-23T06:50:07;4.03;;;1.40;;
39994;SDS011;25686;51.908;10.418;2024-03-23T06:52:10;6.57;;;1.77;;
39994;SDS011;25686;51.908;10.418;2024-03-23T06:54:11;12.10;;;1.97;;
39994;SDS011;25686;51.908;10.418;2024-03-23T06:56:12;6.10;;;1.57;;
39994;SDS011;25686;51.908;10.418;2024-03-23T06:58:13;12.73;;;1.93;;
39994;SDS011;25686;51.908;10.418;2024-03-23T07:00:14;8.33;;;1.80;;
39994;SDS011;25686;51.908;10.418;2024-03-23T07:02:16;7.57;;;1.90;;
39994;SDS011;25686;51.908;10.418;2024-03-23T07:04:17;7.97;;;1.77;;
39994;SDS011;25686;51.908;10.418;2024-03-23T07:06:18;13.03;;;2.13;;
39994;SDS011;25686;51.908;10.418;2024-03-23T07:08:19;13.43;;;2.17;;
39994;SDS011;25686;51.908;10.418;2024-03-23T07:10:22;9.53;;;1.97;;
39994;SDS011;25686;51.908;10.418;2024-03-23T07:12:23;16.10;;;2.13;;
39994;SDS011;25686;51.908;10.418;2024-03-23T07:14:24;10.47;;;1.83;;
39994;SDS011;25686;51.908;10.418;2024-03-23T07:16:26;13.50;;;2.10;;
39994;SDS011;25686;51.908;10.418;2024-03-23T07:18:27;11.33;;;2.07;;
39994;SDS011;25686;51.908;10.418;2024-03-23T07:20:28;12.67;;;2.20;;
39994;SDS011;25686;51.908;10.418;2024-03-23T07:22:31;15.03;;;2.77;;
39994;SDS011;25686;51.908;10.418;2024-03-23T07:24:32;14.40;;;3.33;;
39994;SDS011;25686;51.908;10.418;2024-03-23T07:26:34;13.30;;;2.70;;
39994;SDS011;25686;51.908;10.418;2024-03-23T07:28:35;13.10;;;2.27;;
39994;SDS011;25686;51.908;10.418;2024-03-23T07:30:36;10.20;;;2.20;;
39994;SDS011;25686;51.908;10.418;2024-03-23T07:32:37;15.70;;;2.40;;
39994;SDS011;25686;51.908;10.418;2024-03-23T07:34:38;14.23;;;2.57;;
39994;SDS011;25686;51.908;10.418;2024-03-23T07:36:39;12.70;;;2.83;;
39994;SDS011;25686;51.908;10.418;2024-03-23T07:38:41;8.03;;;2.17;;
39994;SDS011;25686;51.908;10.418;2024-03-23T07:40:42;9.23;;;1.93;;
39994;SDS011;25686;51.908;10.418;2024-03-23T07:42:43;12.17;;;2.17;;
39994;SDS011;25686;51.908;10.418;2024-03-23T07:44:44;13.10;;;2.17;;
39994;SDS011;25686;51.908;10.418;2024-03-23T07:46:46;9.57;;;2.03;;
39994;SDS011;25686;51.908;10.418;2024-03-23T07:48:47;10.47;;;2.07;;
39994;SDS011;25686;51.908;10.418;2024-03-23T07:52:59;10.77;;;1.83;;
39994;SDS011;25686;51.908;10.418;2024-03-23T07:55:00;6.97;;;1.53;;
39994;SDS011;25686;51.908;10.418;2024-03-23T07:57:01;5.20;;;1.40;;
39994;SDS011;25686;51.908;10.418;2024-03-23T07:59:01;4.37;;;1.43;;
39994;SDS011;25686;51.908;10.418;2024-03-23T08:03:08;6.63;;;1.37;;
39994;SDS011;25686;51.908;10.418;2024-03-23T08:05:09;3.73;;;1.23;;
39994;SDS011;25686;51.908;10.418;2024-03-23T08:07:10;6.63;;;1.57;;
39994;SDS011;25686;51.908;10.418;2024-03-23T08:09:11;7.13;;;1.33;;
39994;SDS011;25686;51.908;10.418;2024-03-23T08:11:12;5.77;;;1.80;;
39994;SDS011;25686;51.908;10.418;2024-03-23T08:13:13;3.30;;;1.50;;
39994;SDS011;25686;51.908;10.418;2024-03-23T08:15:14;5.43;;;1.50;;
39994;SDS011;25686;51.908;10.418;2024-03-23T08:17:14;5.13;;;1.37;;
39994;SDS011;25686;51.908;10.418;2024-03-23T08:19:15;4.63;;;1.23;;
39994;SDS011;25686;51.908;10.418;2024-03-23T08:21:16;4.63;;;1.43;;
39994;SDS011;25686;51.908;10.418;2024-03-23T08:23:18;7.90;;;1.07;;
39994;SDS011;25686;51.908;10.418;2024-03-23T08:25:19;5.07;;;1.10;;
39994;SDS011;25686;51.908;10.418;2024-03-23T08:27:20;7.77;;;1.23;;
39994;SDS011;25686;51.908;10.418;2024-03-23T08:29:21;2.77;;;1.00;;
39994;SDS011;25686;51.908;10.418;2024-03-23T08:31:22;4.67;;;1.00;;
39994;SDS011;25686;51.908;10.418;2024-03-23T08:33:23;4.67;;;0.90;;
39994;SDS011;25686;51.908;10.418;2024-03-23T08:35:24;2.67;;;1.00;;
39994;SDS011;25686;51.908;10.418;2024-03-23T08:37:25;7.57;;;1.10;;
39994;SDS011;25686;51.908;10.418;2024-03-23T08:39:27;4.60;;;1.07;;
39994;SDS011;25686;51.908;10.418;2024-03-23T08:41:28;4.23;;;1.03;;
39994;SDS011;25686;51.908;10.418;2024-03-23T08:43:29;9.97;;;1.20;;
39994;SDS011;25686;51.908;10.418;2024-03-23T08:45:30;3.07;;;0.80;;
39994;SDS011;25686;51.908;10.418;2024-03-23T08:47:33;4.03;;;0.90;;
39994;SDS011;25686;51.908;10.418;2024-03-23T08:49:34;4.20;;;1.00;;
39994;SDS011;25686;51.908;10.418;2024-03-23T08:51:35;6.63;;;1.20;;
39994;SDS011;25686;51.908;10.418;2024-03-23T08:53:36;3.90;;;1.37;;
39994;SDS011;25686;51.908;10.418;2024-03-23T08:55:37;7.23;;;1.23;;
39994;SDS011;25686;51.908;10.418;2024-03-23T08:57:38;3.83;;;1.30;;
39994;SDS011;25686;51.908;10.418;2024-03-23T08:59:39;5.00;;;1.60;;
39994;SDS011;25686;51.908;10.418;2024-03-23T09:01:40;14.17;;;1.97;;
39994;SDS011;25686;51.908;10.418;2024-03-23T09:03:41;12.90;;;2.53;;
39994;SDS011;25686;51.908;10.418;2024-03-23T09:05:43;9.00;;;2.17;;
39994;SDS011;25686;51.908;10.418;2024-03-23T09:07:44;9.87;;;2.90;;
39994;SDS011;25686;51.908;10.418;2024-03-23T09:09:45;9.17;;;2.80;;
39994;SDS011;25686;51.908;10.418;2024-03-23T09:11:45;10.33;;;2.27;;
39994;SDS011;25686;51.908;10.418;2024-03-23T09:13:46;14.63;;;2.47;;
39994;SDS011;25686;51.908;10.418;2024-03-23T09:15:51;10.27;;;2.70;;
39994;SDS011;25686;51.908;10.418;2024-03-23T09:17:56;10.73;;;2.57;;
39994;SDS011;25686;51.908;10.418;2024-03-23T09:19:57;10.73;;;2.77;;
39994;SDS011;25686;51.908;10.418;2024-03-23T09:21:58;12.97;;;2.50;;
39994;SDS011;25686;51.908;10.418;2024-03-23T09:23:59;7.20;;;2.47;;
39994;SDS011;25686;51.908;10.418;2024-03-23T09:26:02;12.67;;;2.87;;
39994;SDS011;25686;51.908;10.418;2024-03-23T09:28:04;13.67;;;3.07;;
39994;SDS011;25686;51.908;10.418;2024-03-23T09:30:05;8.37;;;2.53;;
39994;SDS011;25686;51.908;10.418;2024-03-23T09:32:06;9.83;;;2.20;;
39994;SDS011;25686;51.908;10.418;2024-03-23T09:34:07;7.47;;;2.57;;
39994;SDS011;25686;51.908;10.418;2024-03-23T09:36:08;13.03;;;2.63;;
39994;SDS011;25686;51.908;10.418;2024-03-23T09:38:10;15.20;;;2.70;;
39994;SDS011;25686;51.908;10.418;2024-03-23T09:40:11;10.50;;;2.47;;
39994;SDS011;25686;51.908;10.418;2024-03-23T09:42:12;10.93;;;2.40;;
39994;SDS011;25686;51.908;10.418;2024-03-23T09:44:14;11.03;;;2.47;;
39994;SDS011;25686;51.908;10.418;2024-03-23T09:46:15;9.83;;;2.70;;
39994;SDS011;25686;51.908;10.418;2024-03-23T09:48:16;11.23;;;3.10;;
39994;SDS011;25686;51.908;10.418;2024-03-23T09:50:17;16.87;;;3.33;;
39994;SDS011;25686;51.908;10.418;2024-03-23T09:52:19;14.50;;;3.20;;
39994;SDS011;25686;51.908;10.418;2024-03-23T09:54:19;9.10;;;2.97;;
39994;SDS011;25686;51.908;10.418;2024-03-23T09:56:21;15.27;;;3.47;;
39994;SDS011;25686;51.908;10.418;2024-03-23T09:58:23;13.67;;;3.37;;
39994;SDS011;25686;51.908;10.418;2024-03-23T10:00:24;12.75;;;3.70;;
39994;SDS011;25686;51.908;10.418;2024-03-23T10:02:26;8.57;;;3.13;;
39994;SDS011;25686;51.908;10.418;2024-03-23T10:04:36;15.60;;;3.65;;
39994;SDS011;25686;51.908;10.418;2024-03-23T10:06:37;14.90;;;3.50;;
39994;SDS011;25686;51.908;10.418;2024-03-23T10:08:38;14.45;;;4.03;;
39994;SDS011;25686;51.908;10.418;2024-03-23T10:10:39;12.45;;;3.67;;
39994;SDS011;25686;51.908;10.418;2024-03-23T10:12:43;14.65;;;3.55;;
39994;SDS011;25686;51.908;10.418;2024-03-23T10:14:47;18.38;;;3.75;;
39994;SDS011;25686;51.908;10.418;2024-03-23T10:16:48;11.80;;;3.58;;
39994;SDS011;25686;51.908;10.418;2024-03-23T10:18:49;11.45;;;3.63;;
39994;SDS011;25686;51.908;10.418;2024-03-23T10:21:11;10.95;;;3.40;;
39994;SDS011;25686;51.908;10.418;2024-03-23T10:23:17;15.10;;;3.50;;
39994;SDS011;25686;51.908;10.418;2024-03-23T10:25:22;14.55;;;3.75;;
39994;SDS011;25686;51.908;10.418;2024-03-23T10:27:23;16.15;;;4.30;;
39994;SDS011;25686;51.908;10.418;2024-03-23T10:29:24;14.80;;;3.50;;
39994;SDS011;25686;51.908;10.418;2024-03-23T10:31:28;15.23;;;4.03;;
39994;SDS011;25686;51.908;10.418;2024-03-23T10:33:29;10.85;;;3.33;;
39994;SDS011;25686;51.908;10.418;2024-03-23T10:35:30;11.80;;;3.63;;
39994;SDS011;25686;51.908;10.418;2024-03-23T10:37:31;12.15;;;4.18;;
39994;SDS011;25686;51.908;10.418;2024-03-23T10:39:33;11.50;;;3.55;;
39994;SDS011;25686;51.908;10.418;2024-03-23T10:41:35;11.18;;;3.40;;
39994;SDS011;25686;51.908;10.418;2024-03-23T10:43:37;10.35;;;3.80;;
39994;SDS011;25686;51.908;10.418;2024-03-23T10:45:38;13.32;;;3.92;;
39994;SDS011;25686;51.908;10.418;2024-03-23T10:47:39;13.77;;;4.43;;
39994;SDS011;25686;51.908;10.418;2024-03-23T10:49:40;14.45;;;3.92;;
39994;SDS011;25686;51.908;10.418;2024-03-23T10:51:41;12.68;;;4.80;;
39994;SDS011;25686;51.908;10.418;2024-03-23T10:53:42;13.45;;;4.40;;
39994;SDS011;25686;51.908;10.418;2024-03-23T10:55:44;10.55;;;3.80;;
39994;SDS011;25686;51.908;10.418;2024-03-23T10:57:49;11.88;;;3.80;;
39994;SDS011;25686;51.908;10.418;2024-03-23T10:59:51;8.88;;;3.58;;
39994;SDS011;25686;51.908;10.418;2024-03-23T11:01:56;12.90;;;3.58;;
39994;SDS011;25686;51.908;10.418;2024-03-23T11:03:57;6.60;;;2.85;;
39994;SDS011;25686;51.908;10.418;2024-03-23T11:05:58;9.65;;;3.10;;
39994;SDS011;25686;51.908;10.418;2024-03-23T11:07:59;7.70;;;2.92;;
39994;SDS011;25686;51.908;10.418;2024-03-23T11:10:01;6.25;;;2.75;;
39994;SDS011;25686;51.908;10.418;2024-03-23T11:14:22;10.90;;;3.92;;
39994;SDS011;25686;51.908;10.418;2024-03-23T11:16:25;10.38;;;3.80;;
39994;SDS011;25686;51.908;10.418;2024-03-23T11:18:35;16.13;;;4.28;;
39994;SDS011;25686;51.908;10.418;2024-03-23T11:20:36;4.55;;;1.80;;
39994;SDS011;25686;51.908;10.418;2024-03-23T11:24:41;3.47;;;1.55;;
39994;SDS011;25686;51.908;10.418;2024-03-23T11:26:43;3.47;;;1.25;;
39994;SDS011;25686;51.908;10.418;2024-03-23T11:28:44;6.00;;;1.20;;
39994;SDS011;25686;51.908;10.418;2024-03-23T11:30:45;6.10;;;1.70;;
39994;SDS011;25686;51.908;10.418;2024-03-23T11:32:47;7.90;;;1.20;;
39994;SDS011;25686;51.908;10.418;2024-03-23T11:34:48;4.35;;;1.40;;
39994;SDS011;25686;51.908;10.418;2024-03-23T11:36:50;4.55;;;1.17;;
39994;SDS011;25686;51.908;10.418;2024-03-23T11:38:51;5.20;;;1.35;;
39994;SDS011;25686;51.908;10.418;2024-03-23T11:40:51;4.97;;;1.73;;
39994;SDS011;25686;51.908;10.418;2024-03-23T11:42:56;3.75;;;1.48;;
39994;SDS011;25686;51.908;10.418;2024-03-23T11:44:57;5.45;;;2.08;;
39994;SDS011;25686;51.908;10.418;2024-03-23T11:47:07;11.85;;;2.50;;
39994;SDS011;25686;51.908;10.418;2024-03-23T11:49:29;7.32;;;2.20;;
39994;SDS011;25686;51.908;10.418;2024-03-23T11:51:30;5.18;;;2.20;;
39994;SDS011;25686;51.908;10.418;2024-03-23T11:53:34;8.50;;;2.53;;
39994;SDS011;25686;51.908;10.418;2024-03-23T11:55:39;8.10;;;2.53;;
39994;SDS011;25686;51.908;10.418;2024-03-23T11:57:40;11.15;;;2.85;;
39994;SDS011;25686;51.908;10.418;2024-03-23T11:59:41;13.43;;;3.00;;
39994;SDS011;25686;51.908;10.418;2024-03-23T12:01:44;10.55;;;3.10;;
39994;SDS011;25686;51.908;10.418;2024-03-23T12:03:46;7.78;;;3.20;;
39994;SDS011;25686;51.908;10.418;2024-03-23T12:05:47;8.05;;;2.42;;
39994;SDS011;25686;51.908;10.418;2024-03-23T12:07:49;9.02;;;2.63;;
39994;SDS011;25686;51.908;10.418;2024-03-23T12:10:05;8.95;;;2.33;;
39994;SDS011;25686;51.908;10.418;2024-03-23T12:12:07;11.52;;;2.38;;
39994;SDS011;25686;51.908;10.418;2024-03-23T12:14:08;8.55;;;2.60;;
39994;SDS011;25686;51.908;10.418;2024-03-23T12:16:10;9.00;;;2.50;;
39994;SDS011;25686;51.908;10.418;2024-03-23T12:18:12;5.68;;;2.42;;
39994;SDS011;25686;51.908;10.418;2024-03-23T12:20:13;5.03;;;2.20;;
39994;SDS011;25686;51.908;10.418;2024-03-23T12:22:14;7.43;;;2.20;;
39994;SDS011;25686;51.908;10.418;2024-03-23T12:24:15;9.05;;;2.70;;
39994;SDS011;25686;51.908;10.418;2024-03-23T12:26:16;4.72;;;1.90;;
39994;SDS011;25686;51.908;10.418;2024-03-23T12:28:18;5.00;;;1.75;;
39994;SDS011;25686;51.908;10.418;2024-03-23T12:30:19;6.13;;;1.98;;
39994;SDS011;25686;51.908;10.418;2024-03-23T12:32:20;4.28;;;1.83;;
39994;SDS011;25686;51.908;10.418;2024-03-23T12:34:20;5.53;;;1.83;;
39994;SDS011;25686;51.908;10.418;2024-03-23T12:36:21;4.20;;;1.55;;
39994;SDS011;25686;51.908;10.418;2024-03-23T12:38:22;5.53;;;1.70;;
39994;SDS011;25686;51.908;10.418;2024-03-23T12:40:23;7.35;;;1.75;;
39994;SDS011;25686;51.908;10.418;2024-03-23T12:42:24;6.32;;;1.88;;
39994;SDS011;25686;51.908;10.418;2024-03-23T12:44:25;4.45;;;1.58;;
39994;SDS011;25686;51.908;10.418;2024-03-23T12:46:26;6.38;;;1.73;;
39994;SDS011;25686;51.908;10.418;2024-03-23T12:48:27;6.35;;;2.30;;
39994;SDS011;25686;51.908;10.418;2024-03-23T12:50:28;4.82;;;1.75;;
39994;SDS011;25686;51.908;10.418;2024-03-23T12:52:29;7.03;;;2.10;;
39994;SDS011;25686;51.908;10.418;2024-03-23T12:54:30;8.07;;;2.80;;
39994;SDS011;25686;51.908;10.418;2024-03-23T12:56:31;7.18;;;2.65;;
39994;SDS011;25686;51.908;10.418;2024-03-23T12:58:32;8.18;;;2.47;;